Flight Track Log - Related Links

Times and Time Zones

All times are in EDT time to prevent confusion due to time zone crossing. See the ASH3759 flight status page for this flight to view local times or setup timezone preferences in your user account.

Time Position Orientation Groundspeed Altitude Reporting Facility
EDT Latitude Longitude Course Direction KTS MPH feet Rate Location/Type
Thu 07:02:51 AM 42.7694 -73.8089 281° West 174 200 1,000  Level Boston Center
Thu 07:03:57 AM 42.8208 -73.8556 326° Northwest 216 249 3,400 2,016 Climbing Boston Center
Thu 07:04:59 AM 42.8639 -73.9186 313° West 249 287 5,300 2,093 Climbing Boston Center
Thu 07:06:00 AM 42.8338 -74.3362 283° West  Level FlightAware Approximate
Thu 07:06:06 AM 42.9172 -73.9908 315° West 282 325 7,900  Level Boston Center
Thu 07:07:00 AM 42.8566 -74.4726 283° West  Level FlightAware Approximate
Thu 07:07:04 AM 42.9764 -74.0747 314° West 276 318 11,100  Level Boston Center
Thu 07:08:00 AM 42.8886 -74.6033 281° West  Level FlightAware Approximate
Thu 07:08:04 AM 43.0294 -74.1500 314° West 286 329 12,300  Level Boston Center
Thu 07:09:05 AM 43.0989 -74.2514 313° West 317 365 14,900 2,213 Climbing Boston Center
Thu 07:10:06 AM 43.1600 -74.3272 318° Northwest 330 380 16,800 1,934 Climbing Boston Center
Thu 07:11:06 AM 43.2292 -74.4378 311° West 330 380 18,800 1,729 Climbing Boston Center
Thu 07:12:04 AM 43.2478 -74.5550 282° West 330 380 20,200 1,590 Climbing Boston Center
Thu 07:13:03 AM 43.2639 -74.6956 279° West 350 403 21,900 1,563 Climbing Boston Center
Thu 07:14:03 AM 43.2631 -74.8408 270° West 375 432 23,300 1,388 Climbing Boston Center
Thu 07:15:04 AM 43.2617 -74.9947 269° West 387 445 24,700 1,240 Climbing Boston Center
Thu 07:16:04 AM 43.2583 -75.1458 268° West 393 452 25,800 1,140 Climbing Boston Center
Thu 07:17:05 AM 43.2539 -75.3253 268° West 414 476 27,000 1,140 Climbing Boston Center
Thu 07:18:05 AM 43.2558 -75.4850 271° West 421 484 28,100 1,050 Climbing Boston Center
Thu 07:19:05 AM 43.2517 -75.6444 268° West 421 484 29,100 1,127 Climbing Boston Center
Thu 07:21:06 AM 43.2472 -75.9567 269° West 430 495 31,500 1,141 Climbing Cleveland Center
Thu 07:22:09 AM 43.2333 -76.1167 263° West 420 483 32,600 1,024 Climbing Toronto Center
Thu 07:23:09 AM 43.2333 -76.2667 270° West 420 483 33,600 1,100 Climbing Toronto Center
Thu 07:24:09 AM 43.2167 -76.4333 262° West 410 472 34,800 1,150 Climbing Toronto Center
Thu 07:25:09 AM 43.2167 -76.5667 270° West 400 460 35,900 600 Climbing Toronto Center
Thu 07:26:09 AM 43.2333 -76.7333 278° West 400 460 36,000 50 Climbing Toronto Center
Thu 07:27:09 AM 43.2167 -76.8833 261° West 410 472 36,000  Level Toronto Center
Thu 07:28:06 AM 43.2233 -77.0503 273° West 415 478 36,000 564 Level Cleveland Center
Thu 07:29:06 AM 43.2178 -77.2186 267° West 415 478 37,100 900 Climbing Cleveland Center
Thu 07:30:06 AM 43.2139 -77.3669 268° West 410 472 37,800 450 Climbing Cleveland Center
Thu 07:31:06 AM 43.2111 -77.5039 268° West 404 465 38,000 100 Climbing Cleveland Center
Thu 07:32:06 AM 43.2069 -77.6553 268° West 404 465 38,000  Level Cleveland Center
Thu 07:33:06 AM 43.2003 -77.8092 267° West 404 465 38,000  Level Cleveland Center
Thu 07:34:06 AM 43.1975 -77.9661 269° West 404 465 38,000  Level Cleveland Center
Thu 07:35:06 AM 43.1906 -78.1200 267° West 404 465 38,000  Level Cleveland Center
Thu 07:36:06 AM 43.1833 -78.2828 267° West 409 471 38,000  Level Cleveland Center
Thu 07:37:06 AM 43.1781 -78.4367 267° West 414 476 38,000  Level Cleveland Center
Thu 07:38:06 AM 43.1706 -78.5936 266° West 414 476 38,000  Level Cleveland Center
Thu 07:39:06 AM 43.1647 -78.7503 267° West 414 476 38,000  Level Cleveland Center
Thu 07:40:09 AM 43.1500 -78.9000 262° West 410 472 38,000  Level Toronto Center
Thu 07:41:09 AM 43.1500 -79.0667 270° West 410 472 38,000  Level Toronto Center
Thu 07:42:09 AM 43.1333 -79.2167 261° West 410 472 38,000  Level Toronto Center
Thu 07:43:09 AM 43.1333 -79.3833 270° West 410 472 38,000  Level Toronto Center
Thu 07:44:09 AM 43.1167 -79.5500 262° West 420 483 38,000  Level Toronto Center
Thu 07:45:09 AM 43.1167 -79.7000 270° West 410 472 38,000  Level Toronto Center
Thu 07:46:09 AM 43.1000 -79.8333 260° West 420 483 38,000  Level Toronto Center
Thu 07:47:09 AM 43.1000 -80.0167 270° West 420 483 38,000  Level Toronto Center
Thu 07:48:09 AM 43.0833 -80.1833 262° West 420 483 38,000  Level Toronto Center
Thu 07:49:09 AM 43.0833 -80.3167 270° West 420 483 38,000  Level Toronto Center
Thu 07:50:09 AM 43.0667 -80.5000 263° West 420 483 38,000  Level Toronto Center
Thu 07:51:09 AM 43.0667 -80.6333 270° West 420 483 38,000  Level Toronto Center
Thu 07:52:09 AM 43.0500 -80.8000 262° West 420 483 38,000  Level Toronto Center
Thu 07:53:09 AM 43.0333 -80.9500 261° West 420 483 38,000  Level Toronto Center
Thu 07:54:09 AM 43.0167 -81.1167 262° West 420 483 38,000  Level Toronto Center
Thu 07:55:09 AM 43.0167 -81.3000 270° West 420 483 38,000  Level Toronto Center
Thu 07:56:09 AM 43.0167 -81.4333 270° West 420 483 38,000  Level Toronto Center
Thu 07:57:09 AM 43.0167 -81.6167 270° West 420 483 38,000  Level Toronto Center
Thu 07:58:09 AM 43.0167 -81.7500 270° West 420 483 38,000  Level Toronto Center
Thu 07:59:09 AM 43.0000 -81.9333 263° West 420 483 38,000  Level Toronto Center
Thu 08:00:09 AM 43.0000 -82.0667 270° West 420 483 38,000  Level Toronto Center
Thu 08:01:09 AM 43.0000 -82.2333 270° West 420 483 38,000  Level Toronto Center
Thu 08:02:09 AM 43.0000 -82.4167 270° West 420 483 38,000  Level Toronto Center
Thu 08:03:09 AM 43.0000 -82.5500 270° West 430 495 38,000  Level Toronto Center
Thu 08:04:09 AM 42.9833 -82.7333 263° West 430 495 38,000  Level Toronto Center
Thu 08:05:09 AM 42.9833 -82.9000 270° West 430 495 38,000  Level Toronto Center
Thu 08:06:09 AM 42.9833 -83.0500 270° West 430 495 38,000  Level Toronto Center
Thu 08:07:09 AM 42.9667 -83.2167 262° West 430 495 38,000  Level Toronto Center
Thu 08:08:09 AM 42.9667 -83.4000 270° West 430 495 38,000  Level Toronto Center
Thu 08:09:09 AM 42.9667 -83.5500 270° West 430 495 38,000  Level Toronto Center
Thu 08:10:09 AM 42.9500 -83.7167 262° West 430 495 38,000  Level Toronto Center
Thu 08:11:09 AM 42.9333 -83.8667 261° West 440 506 38,000  Level Toronto Center
Thu 08:12:09 AM 42.9333 -84.0333 270° West 440 506 38,000 -500 Level Toronto Center
Thu 08:13:09 AM 42.9000 -84.2167 256° West 440 506 37,000 -1,150 Descending Toronto Center
Thu 08:14:09 AM 42.8833 -84.3667 261° West 430 495 35,700 -1,319 Descending Toronto Center
Thu 08:14:40 AM 42.8969 -84.4528 282° West 434 499 35,000 -1,290 Descending Chicago Center
Thu 08:15:42 AM 42.8806 -84.6089 262° West 420 483 33,700 -1,258 Descending Chicago Center
Thu 08:16:44 AM 42.8656 -84.7647 263° West 416 479 32,400 -823 Descending Chicago Center
Thu 08:17:46 AM 42.8483 -84.9219 262° West 419 482 32,000 -194 Descending Chicago Center
Thu 08:18:48 AM 42.8328 -85.0794 262° West 421 484 32,000  Level Chicago Center
Thu 08:19:50 AM 42.8156 -85.2383 262° West 425 489 32,000  Level Chicago Center
Thu 08:20:52 AM 42.7978 -85.3992 261° West 428 493 32,000 -1,016 Level Chicago Center
Thu 08:21:54 AM 42.7694 -85.5919 259° West 434 499 29,900 -2,177 Descending Chicago Center
Thu 08:22:56 AM 42.7406 -85.7486 256° West 428 493 27,500 -2,274 Descending Chicago Center
Thu 08:23:58 AM 42.7139 -85.8983 256° West 408 470 25,200 -2,226 Descending Chicago Center
Thu 08:25:00 AM 42.6872 -86.0436 256° West 396 456 22,900 -2,226 Descending Chicago Center
Thu 08:26:02 AM 42.6614 -86.1889 256° West 395 455 20,600 -1,839 Descending Chicago Center
Thu 08:27:04 AM 42.6353 -86.3250 255° West 374 430 19,100 -1,548 Descending Chicago Center
Thu 08:28:06 AM 42.6108 -86.4519 255° West 350 403 17,400 -1,694 Descending Chicago Center
Thu 08:29:08 AM 42.5833 -86.6019 256° West 342 394 15,600 -1,548 Descending Chicago Center
Thu 08:30:10 AM 42.5614 -86.7222 256° West 331 381 14,200 -1,452 Descending Chicago Center
Thu 08:31:12 AM 42.5297 -86.8425 250° West 338 389 12,600 -1,500 Descending Chicago Center
Thu 08:32:14 AM 42.4986 -86.9592 250° West 332 382 11,100 -1,258 Descending Chicago Center
Thu 08:33:16 AM 42.4647 -87.0719 248° West 322 371 10,000 -774 Descending Chicago Center
Thu 08:34:18 AM 42.4358 -87.1781 250° West 303 349 9,500 -484 Descending Chicago Center
Thu 08:35:20 AM 42.4083 -87.2806 250° West 290 334 9,000 -823 Descending Chicago Center
Thu 08:36:22 AM 42.3586 -87.4006 241° Southwest 301 346 7,800 -960 Descending Chicago Center
Thu 08:37:25 AM 42.3169 -87.4869 237° Southwest 301 346 7,000 -528 Descending Chicago Center
Thu 08:38:27 AM 42.2717 -87.5756 235° Southwest 290 334 6,700 -968 Descending Chicago Center
Thu 08:39:29 AM 42.2064 -87.6656 226° Southwest 281 323 5,000 -919 Descending Chicago Center
Thu 08:40:31 AM 42.1547 -87.7236 220° Southwest 244 281 4,800 -835 Descending Chicago Center
Thu 08:41:24 AM 42.1000 -87.7667 210° Southwest 232 267 3,400 -1,311 Descending Chicago TRACON
Thu 08:42:30 AM 42.0667 -87.8333 236° Southwest 190 219 2,200 -952 Descending Chicago TRACON
Thu 08:43:30 AM 42.0333 -87.8667 217° Southwest 143 165 1,400 -800 Descending Chicago TRACON

Login

Don't have an account? Register now (free) for customized features, flight alerts, and more!